St Pierre — FIDX — position and weather

sailwx.info

Track history (hours):
 
Tides and Currents Weather Stations Pressure Air Temp Water Temp Dewpoint Dewpoint Depression Visibility Wind Speed Wind Dir Waves Ship Positions

St Pierre

Last reported at 2017-Jul-25 12:30 UTC. Time now 2017-Jul-25 12:42 UTC.
Position N 47°05' W 002°21'.

Length 84 m; draft 5.5 m.

Type: Cargo ship. MMSI: 228024800.

Date/timePositionNaut miles runAvg speedWind from/ knotsBaromVisibWave heightAir tempDewpointWater temp
2017-Jul-25 12:30N 47°05' W 002°21'0 0.4
2017-Jul-25 12:00N 47°05' W 002°22'0 0.7
2017-Jul-25 11:30N 47°05' W 002°21'0 0.6
2017-Jul-25 11:00N 47°05' W 002°22'3 5.3
2017-Jul-25 10:30N 47°08' W 002°20'510.2
2017-Jul-25 10:00N 47°12' W 002°17'612.4
2017-Jul-25 09:30N 47°17' W 002°11'3 6.1
2017-Jul-25 09:00N 47°18' W 002°07'0 0.0
2017-Jul-25 08:30N 47°18' W 002°07'0 0.0
2017-Jul-25 08:00N 47°18' W 002°07'0 0.0
2017-Jul-25 07:30N 47°18' W 002°07'0 0.0
2017-Jul-25 07:00N 47°18' W 002°07'0 0.0
2017-Jul-25 06:30N 47°18' W 002°07'0 0.0
2017-Jul-25 06:00N 47°18' W 002°07'0 0.0
2017-Jul-25 05:30N 47°18' W 002°07'0 0.0
2017-Jul-25 05:00N 47°18' W 002°07'0 0.0
2017-Jul-25 04:30N 47°18' W 002°07'0 0.0
2017-Jul-25 04:00N 47°18' W 002°07'0 0.0
2017-Jul-25 03:30N 47°18' W 002°07'0 0.0
2017-Jul-25 03:00N 47°18' W 002°07'0 0.0
2017-Jul-25 02:30N 47°18' W 002°07'0 0.0
2017-Jul-25 02:00N 47°18' W 002°07'0 0.0
2017-Jul-25 01:30N 47°18' W 002°07'0 0.0
2017-Jul-25 01:00N 47°18' W 002°07'0 0.0
2017-Jul-25 00:30N 47°18' W 002°07'0 0.0
2017-Jul-25 00:00N 47°18' W 002°07'0 0.0
2017-Jul-24 23:30N 47°18' W 002°07'0 0.0
2017-Jul-24 23:00N 47°18' W 002°07'0 0.0
2017-Jul-24 22:30N 47°18' W 002°07'0 0.0
2017-Jul-24 22:00N 47°18' W 002°07'0 0.0
2017-Jul-24 21:30N 47°18' W 002°07'0 0.0
2017-Jul-24 21:00N 47°18' W 002°07'2 4.8
2017-Jul-24 20:30N 47°18' W 002°04'713.9
2017-Jul-24 20:00N 47°17' W 001°54'713.0
2017-Jul-24 19:30N 47°12' W 001°46'510.2
2017-Jul-24 19:00N 47°11' W 001°39'1 2.9
2017-Jul-24 18:30N 47°12' W 001°37'0 0.0
2017-Jul-24 18:00N 47°12' W 001°37'0 0.0
2017-Jul-24 17:30N 47°12' W 001°37'0 0.0
2017-Jul-24 17:00N 47°12' W 001°37'0 0.0
2017-Jul-24 16:30N 47°12' W 001°37'0 0.0
2017-Jul-24 16:00N 47°12' W 001°37'0 0.0
2017-Jul-24 13:00N 47°12' W 001°37'0 0.0
2017-Jul-24 12:30N 47°12' W 001°37'0 0.0
2017-Jul-24 12:00N 47°12' W 001°37'0 0.0
2017-Jul-24 11:30N 47°12' W 001°37'0 0.0
2017-Jul-24 11:00N 47°12' W 001°37'0 0.0
2017-Jul-24 10:30N 47°12' W 001°37'0 0.0
2017-Jul-24 10:00N 47°12' W 001°37'0 0.0
2017-Jul-24 09:30N 47°12' W 001°37'0 0.0
2017-Jul-24 09:00N 47°12' W 001°37'0 0.0
2017-Jul-24 08:30N 47°12' W 001°37'0 0.0
2017-Jul-24 08:00N 47°12' W 001°37'0 0.0
2017-Jul-24 07:30N 47°12' W 001°37'0 0.0
2017-Jul-24 07:00N 47°12' W 001°37'0 0.0
2017-Jul-24 06:30N 47°12' W 001°37'0 0.0
2017-Jul-24 06:00N 47°12' W 001°37'0 0.0
2017-Jul-24 05:30N 47°12' W 001°37'0 0.0
2017-Jul-24 05:00N 47°12' W 001°37'0 0.0
2017-Jul-24 04:30N 47°12' W 001°37'0 0.0
2017-Jul-24 04:00N 47°12' W 001°37'0 0.0
2017-Jul-24 03:30N 47°12' W 001°37'0 0.0
2017-Jul-24 03:00N 47°12' W 001°37'0 0.0
2017-Jul-24 02:30N 47°12' W 001°37'0 0.0
2017-Jul-24 02:00N 47°12' W 001°37'0 0.0
2017-Jul-24 01:30N 47°12' W 001°37'0 0.0
2017-Jul-24 01:00N 47°12' W 001°37'0 0.0
2017-Jul-24 00:30N 47°12' W 001°37'0 0.0
2017-Jul-24 00:00N 47°12' W 001°37'0 0.0
2017-Jul-23 23:30N 47°12' W 001°37'0 0.0
2017-Jul-23 23:00N 47°12' W 001°37'0 0.0
2017-Jul-23 22:30N 47°12' W 001°37'0 0.1
2017-Jul-23 22:00N 47°12' W 001°37'0 0.1
2017-Jul-23 21:30N 47°12' W 001°37'0 0.0
2017-Jul-23 21:00N 47°12' W 001°37'0 0.0
2017-Jul-23 20:30N 47°12' W 001°37'0 0.0
2017-Jul-23 20:00N 47°12' W 001°37'0 0.0
2017-Jul-23 19:30N 47°12' W 001°37'0 0.0
2017-Jul-23 19:00N 47°12' W 001°37'0 0.0
2017-Jul-23 18:30N 47°12' W 001°37'1 1.5
2017-Jul-23 18:01N 47°12' W 001°38'0 0.1
2017-Jul-23 17:30N 47°12' W 001°38'0 0.0
2017-Jul-23 17:00N 47°12' W 001°38'0 0.0
2017-Jul-23 16:30N 47°12' W 001°38'0 0.6
2017-Jul-23 16:00N 47°12' W 001°38'510.0
2017-Jul-23 15:30N 47°12' W 001°46'510.5
2017-Jul-23 15:00N 47°16' W 001°51'510.6
2017-Jul-23 14:30N 47°17' W 001°59'611.7
2017-Jul-23 14:00N 47°18' W 002°07'612.4
2017-Jul-23 13:31N 47°14' W 002°15'712.9
2017-Jul-23 13:00N 47°09' W 002°19'4 7.5
2017-Jul-23 12:30N 47°06' W 002°22'0 0.3
2017-Jul-23 12:00N 47°05' W 002°23'0 0.1
2017-Jul-23 11:30N 47°05' W 002°23'0 0.9
2017-Jul-23 11:00N 47°06' W 002°22'0 1.0
2017-Jul-23 10:30N 47°05' W 002°23'1 1.0
2017-Jul-23 10:00N 47°06' W 002°22'0 0.7
2017-Jul-23 09:30N 47°06' W 002°22'4 7.6
2017-Jul-23 09:00N 47°09' W 002°20'713.5
2017-Jul-23 08:30N 47°15' W 002°14'713.3
2017-Jul-23 08:00N 47°18' W 002°06'713.6
2017-Jul-23 07:30N 47°17' W 001°56'713.4
2017-Jul-23 07:00N 47°13' W 001°48'611.5
2017-Jul-23 06:30N 47°12' W 001°40'2 3.0
2017-Jul-23 06:00N 47°12' W 001°38'0 0.0
2017-Jul-23 05:30N 47°12' W 001°38'0 0.0
2017-Jul-23 05:00N 47°12' W 001°38'0 0.0
2017-Jul-23 04:30N 47°12' W 001°38'1 1.1
2017-Jul-23 04:00N 47°11' W 001°39'5 9.6
2017-Jul-23 03:30N 47°12' W 001°46'510.9
2017-Jul-23 03:00N 47°16' W 001°52'611.5
2017-Jul-23 02:30N 47°17' W 001°60'611.4
2017-Jul-23 02:00N 47°18' W 002°08'611.9
2017-Jul-23 01:30N 47°14' W 002°15'611.4
2017-Jul-23 01:00N 47°09' W 002°19'4 7.6
2017-Jul-23 00:30N 47°06' W 002°21'0 0.5
2017-Jul-23 00:00N 47°06' W 002°21'0 0.4
2017-Jul-22 23:30N 47°06' W 002°21'1 1.5
2017-Jul-22 23:00N 47°06' W 002°22'1 1.1
2017-Jul-22 22:31N 47°05' W 002°23'0 1.0
2017-Jul-22 22:00N 47°06' W 002°22'0 0.8
2017-Jul-22 21:30N 47°06' W 002°22'0 0.5
2017-Jul-22 21:00N 47°06' W 002°22'0 0.3
2017-Jul-22 20:30N 47°06' W 002°22'1 1.3
2017-Jul-22 20:00N 47°05' W 002°23'611.0
2017-Jul-22 19:30N 47°10' W 002°18'714.0
2017-Jul-22 19:01N 47°16' W 002°12'611.9
2017-Jul-22 18:30N 47°18' W 002°04'713.4
2017-Jul-22 18:00N 47°17' W 001°55'612.7
2017-Jul-22 17:30N 47°13' W 001°47'610.9
2017-Jul-22 17:00N 47°12' W 001°39'1 1.9
2017-Jul-22 16:30N 47°12' W 001°38'0 0.0
2017-Jul-22 16:00N 47°12' W 001°38'0 0.0
2017-Jul-22 15:30N 47°12' W 001°38'0 0.0
2017-Jul-22 15:00N 47°12' W 001°38'6 6.3
2017-Jul-22 14:00N 47°13' W 001°47'5 9.3
2017-Jul-22 13:30N 47°16' W 001°52'510.3
2017-Jul-22 13:00N 47°17' W 001°59'611.0
2017-Jul-22 12:30N 47°18' W 002°07'612.3
2017-Jul-22 12:00N 47°14' W 002°15'611.7
2017-Jul-22 11:30N 47°09' W 002°19'5 9.2
2017-Jul-22 11:00N 47°05' W 002°21'0 0.7
2017-Jul-22 10:30N 47°05' W 002°21'0 0.5
2017-Jul-22 10:00N 47°05' W 002°22'0 0.8
2017-Jul-22 09:31N 47°05' W 002°21'0 0.7
2017-Jul-22 09:01N 47°05' W 002°22'0 0.3
2017-Jul-22 08:31N 47°05' W 002°21'0 0.1
2017-Jul-22 08:01N 47°05' W 002°21'0 0.4
2017-Jul-22 07:31N 47°05' W 002°22'3 6.2
2017-Jul-22 07:01N 47°08' W 002°20'612.9
2017-Jul-22 06:30N 47°14' W 002°16'713.5
2017-Jul-22 06:00N 47°18' W 002°08'1 1.8
2017-Jul-22 05:30N 47°18' W 002°07'0 0.0
2017-Jul-22 05:01N 47°18' W 002°07'0 0.0
2017-Jul-22 04:30N 47°18' W 002°07'0 0.0
2017-Jul-22 04:00N 47°18' W 002°07'0 0.0
2017-Jul-22 03:30N 47°18' W 002°07'4 7.2
2017-Jul-22 03:01N 47°16' W 002°11'612.2
2017-Jul-22 02:30N 47°12' W 002°17'611.8
2017-Jul-22 02:01N 47°07' W 002°22'1 2.4
2017-Jul-22 01:30N 47°05' W 002°22'0 0.3
2017-Jul-22 01:00N 47°05' W 002°22'0 0.9
2017-Jul-22 00:30N 47°05' W 002°22'0 0.9
2017-Jul-22 00:00N 47°06' W 002°22'0 0.8
2017-Jul-21 23:30N 47°06' W 002°22'0 0.5
2017-Jul-21 23:00N 47°06' W 002°22'0 0.3
2017-Jul-21 22:30N 47°06' W 002°22'0 0.2
2017-Jul-21 22:00N 47°06' W 002°22'1 1.1
2017-Jul-21 21:29N 47°06' W 002°22'510.1
2017-Jul-21 21:00N 47°07' W 002°29'611.5
2017-Jul-21 20:30N 47°10' W 002°36'1411.9
2017-Jul-21 19:21N 47°17' W 002°54'711.9
2017-Jul-21 18:47N 47°21' W 003°02'311.9
2017-Jul-21 18:30N 47°23' W 003°05'510.0
2017-Jul-21 18:00N 47°27' W 003°10'4 9.0
2017-Jul-21 17:30N 47°31' W 003°13'5 9.6
2017-Jul-21 17:00N 47°35' W 003°16'510.5
2017-Jul-21 16:30N 47°39' W 003°21'5 9.3
2017-Jul-21 16:00N 47°44' W 003°22'2 3.8
2017-Jul-21 15:30N 47°45' W 003°19'0 0.0
2017-Jul-21 15:00N 47°45' W 003°19'0 0.0
2017-Jul-21 14:30N 47°45' W 003°19'0 0.0
2017-Jul-21 14:00N 47°45' W 003°19'0 0.0
2017-Jul-21 13:30N 47°45' W 003°19'2 3.7
2017-Jul-21 13:00N 47°44' W 003°21'4 8.3
2017-Jul-21 12:30N 47°40' W 003°25'0 0.2
2017-Jul-21 12:00N 47°40' W 003°25'0 0.0
2017-Jul-21 11:30N 47°40' W 003°25'0 0.0
2017-Jul-21 11:00N 47°40' W 003°25'0 0.0
2017-Jul-21 10:30N 47°40' W 003°25'0 0.0
2017-Jul-21 10:00N 47°40' W 003°25'0 0.0
2017-Jul-21 09:30N 47°40' W 003°25'0 0.0
2017-Jul-21 09:00N 47°40' W 003°25'0 0.0
2017-Jul-21 08:30N 47°40' W 003°25'0 0.0
2017-Jul-21 08:00N 47°40' W 003°25'0 0.0
2017-Jul-21 07:30N 47°40' W 003°25'0 0.0
2017-Jul-21 07:00N 47°40' W 003°25'0 0.0
2017-Jul-21 06:30N 47°40' W 003°25'0 0.0
2017-Jul-21 06:00N 47°40' W 003°25'0 0.0
2017-Jul-21 05:30N 47°40' W 003°25'0 0.0
2017-Jul-21 05:00N 47°40' W 003°25'0 0.4
2017-Jul-21 04:30N 47°40' W 003°25'510.2
2017-Jul-21 04:00N 47°37' W 003°18'510.1
2017-Jul-21 03:30N 47°33' W 003°15'4 7.7
2017-Jul-21 03:00N 47°29' W 003°12'3 6.6
2017-Jul-21 02:30N 47°27' W 003°10'3 6.0
2017-Jul-21 02:01N 47°24' W 003°07'3 6.3
2017-Jul-21 01:30N 47°22' W 003°04'3 6.6
2017-Jul-21 01:00N 47°20' W 002°60'4 7.5
2017-Jul-21 00:30N 47°18' W 002°55'4 8.0
2017-Jul-21 00:00N 47°15' W 002°51'4 8.3
2017-Jul-20 23:30N 47°13' W 002°46'4 7.7
2017-Jul-20 23:00N 47°11' W 002°41'4 8.1
2017-Jul-20 22:30N 47°09' W 002°35'5 8.9
2017-Jul-20 21:58N 47°07' W 002°29'4 9.5
2017-Jul-20 21:30N 47°05' W 002°23'1 2.9
2017-Jul-20 21:00N 47°05' W 002°21'0 0.7
2017-Jul-20 20:30N 47°05' W 002°22'0 0.9
2017-Jul-20 20:00N 47°05' W 002°21'0 0.8
2017-Jul-20 19:28N 47°05' W 002°22'0 0.6
2017-Jul-20 18:58N 47°05' W 002°21'3 4.5
2017-Jul-20 18:22N 47°07' W 002°20'512.7
2017-Jul-20 18:00N 47°12' W 002°18'714.2
2017-Jul-20 17:30N 47°17' W 002°11'611.2
2017-Jul-20 17:00N 47°18' W 002°03'713.4
2017-Jul-20 16:30N 47°16' W 001°53'612.7
2017-Jul-20 16:00N 47°12' W 001°46'510.4
2017-Jul-20 15:31N 47°12' W 001°38'0 0.4
2017-Jul-20 15:00N 47°12' W 001°38'0 0.0
2017-Jul-20 14:01N 47°12' W 001°38'0 0.0
2017-Jul-20 13:30N 47°12' W 001°38'1 2.4
2017-Jul-20 13:01N 47°12' W 001°40'510.4
2017-Jul-20 12:30N 47°13' W 001°47'611.3
2017-Jul-20 12:01N 47°16' W 001°53'611.6
2017-Jul-20 11:30N 47°18' W 002°02'611.4
2017-Jul-20 11:00N 47°17' W 002°10'612.9
2017-Jul-20 10:30N 47°13' W 002°17'612.0
2017-Jul-20 10:01N 47°07' W 002°21'2 4.1
2017-Jul-20 09:30N 47°06' W 002°22'0 0.9
2017-Jul-20 09:01N 47°06' W 002°22'0 0.5
2017-Jul-20 08:30N 47°06' W 002°22'0 0.8
2017-Jul-20 08:00N 47°05' W 002°23'0 0.7
2017-Jul-20 07:30N 47°06' W 002°22'0 0.1
2017-Jul-20 07:01N 47°06' W 002°22'0 0.3
2017-Jul-20 06:30N 47°06' W 002°22'1 1.1
2017-Jul-20 06:00N 47°06' W 002°22'0 0.4
2017-Jul-20 05:30N 47°06' W 002°22'510.9
2017-Jul-20 05:00N 47°11' W 002°18'714.3
2017-Jul-20 04:30N 47°16' W 002°11'611.7
2017-Jul-20 04:01N 47°18' W 002°03'713.4
2017-Jul-20 03:30N 47°16' W 001°53'612.5
2017-Jul-20 03:00N 47°12' W 001°46'5 9.7
2017-Jul-20 02:30N 47°12' W 001°39'1 1.5
2017-Jul-20 02:00N 47°12' W 001°38'0 0.0
2017-Jul-20 01:30N 47°12' W 001°38'0 0.0
2017-Jul-20 01:00N 47°12' W 001°38'0 0.0
2017-Jul-20 00:30N 47°12' W 001°38'0 0.0
2017-Jul-20 00:00N 47°12' W 001°38'0 0.0
2017-Jul-19 23:30N 47°12' W 001°38'0 0.0
2017-Jul-19 23:00N 47°12' W 001°38'0 0.0
2017-Jul-19 22:30N 47°12' W 001°38'0 0.0
2017-Jul-19 22:00N 47°12' W 001°38'0 0.0
2017-Jul-19 21:30N 47°12' W 001°38'0 0.0
2017-Jul-19 21:00N 47°12' W 001°38'0 0.0
2017-Jul-19 20:30N 47°12' W 001°38'0 0.0
2017-Jul-19 20:00N 47°12' W 001°38'0 0.0
2017-Jul-19 19:30N 47°12' W 001°38'0 0.0
2017-Jul-19 19:00N 47°12' W 001°38'0 0.0
2017-Jul-19 18:30N 47°12' W 001°38'0 0.0
2017-Jul-19 18:00N 47°12' W 001°38'0 0.0
2017-Jul-19 17:30N 47°12' W 001°38'0 0.0
2017-Jul-19 17:00N 47°12' W 001°38'0 0.0
2017-Jul-19 16:30N 47°12' W 001°38'0 0.0
2017-Jul-19 16:00N 47°12' W 001°38'0 0.0
2017-Jul-19 15:30N 47°12' W 001°38'0 0.0
2017-Jul-19 15:00N 47°12' W 001°38'0 0.0
2017-Jul-19 14:30N 47°12' W 001°38'0 0.0
2017-Jul-19 14:00N 47°12' W 001°38'0 0.0
2017-Jul-19 13:30N 47°12' W 001°38'0 0.0
2017-Jul-19 13:00N 47°12' W 001°38'0 0.0
2017-Jul-19 12:30N 47°12' W 001°38'0 0.0
2017-Jul-19 12:00N 47°12' W 001°38'0 0.0
2017-Jul-19 11:30N 47°12' W 001°38'0 0.0
2017-Jul-19 11:00N 47°12' W 001°38'0 0.0
2017-Jul-19 10:30N 47°12' W 001°38'0 0.0
2017-Jul-19 10:00N 47°12' W 001°38'0 0.0
2017-Jul-19 09:30N 47°12' W 001°38'0 0.0
2017-Jul-19 09:00N 47°12' W 001°38'0 0.0
2017-Jul-19 08:30N 47°12' W 001°38'0 0.0
2017-Jul-19 08:00N 47°12' W 001°38'0 0.0
2017-Jul-19 07:30N 47°12' W 001°38'0 0.0
2017-Jul-19 07:00N 47°12' W 001°38'0 0.0
2017-Jul-19 06:30N 47°12' W 001°38'0 0.0
2017-Jul-19 06:00N 47°12' W 001°38'0 0.0
2017-Jul-19 05:30N 47°12' W 001°38'0 0.0
2017-Jul-19 05:00N 47°12' W 001°38'0 0.0
2017-Jul-19 04:30N 47°12' W 001°38'0 0.0
2017-Jul-19 04:00N 47°12' W 001°38'0 0.0
2017-Jul-19 03:30N 47°12' W 001°38'0 0.0
2017-Jul-19 03:00N 47°12' W 001°38'0 0.0
2017-Jul-19 02:30N 47°12' W 001°38'0 0.0
2017-Jul-19 02:00N 47°12' W 001°38'0 0.0
2017-Jul-19 01:31N 47°12' W 001°38'0 0.0
2017-Jul-19 01:00N 47°12' W 001°38'0 0.0
2017-Jul-19 00:30N 47°12' W 001°38'2 3.5
2017-Jul-19 00:00N 47°12' W 001°41'510.8
2017-Jul-18 23:30N 47°13' W 001°48'611.3
2017-Jul-18 23:00N 47°17' W 001°54'612.6
2017-Jul-18 22:30N 47°18' W 002°03'510.9
2017-Jul-18 22:00N 47°16' W 002°11'612.8
2017-Jul-18 21:30N 47°12' W 002°17'612.4
2017-Jul-18 21:00N 47°06' W 002°21'1 2.3
2017-Jul-18 20:30N 47°05' W 002°21'0 0.9
2017-Jul-18 20:00N 47°05' W 002°22'1 1.0
2017-Jul-18 19:30N 47°05' W 002°21'0 0.7
2017-Jul-18 19:00N 47°05' W 002°22'0 0.2
2017-Jul-18 18:30N 47°05' W 002°21'0 0.5
2017-Jul-18 18:00N 47°05' W 002°21'0 1.0
2017-Jul-18 17:30N 47°05' W 002°22'0 0.7
2017-Jul-18 17:00N 47°05' W 002°21'0 1.0
2017-Jul-18 16:30N 47°05' W 002°22'1010.5
2017-Jul-18 15:34N 47°14' W 002°16'314.3
2017-Jul-18 15:22N 47°16' W 002°12'412.2
2017-Jul-18 15:01N 47°18' W 002°07'1312.6
2017-Jul-18 14:00N 47°13' W 001°50'611.7
2017-Jul-18 13:30N 47°12' W 001°41'3 6.1
2017-Jul-18 13:00N 47°12' W 001°37'0 0.0
2017-Jul-18 12:30N 47°12' W 001°37'0 0.0
2017-Jul-18 12:00N 47°12' W 001°37'0 0.0
2017-Jul-18 11:30N 47°12' W 001°37'0 0.0
2017-Jul-18 11:00N 47°12' W 001°37'0 0.0
2017-Jul-18 10:30N 47°12' W 001°37'0 0.0
2017-Jul-18 10:00N 47°12' W 001°37'0 0.0
2017-Jul-18 09:30N 47°12' W 001°37'0 0.0
2017-Jul-18 09:00N 47°12' W 001°37'0 0.0
2017-Jul-18 08:30N 47°12' W 001°37'0 0.0
2017-Jul-18 08:00N 47°12' W 001°37'0 0.0
2017-Jul-18 07:30N 47°12' W 001°37'0 0.0
2017-Jul-18 07:00N 47°12' W 001°37'0 0.0
2017-Jul-18 06:30N 47°12' W 001°37'0 0.0
2017-Jul-18 06:00N 47°12' W 001°37'0 0.0
2017-Jul-18 05:30N 47°12' W 001°37'0 0.0
2017-Jul-18 05:00N 47°12' W 001°37'0 0.0
2017-Jul-18 04:30N 47°12' W 001°37'0 0.0
2017-Jul-18 04:00N 47°12' W 001°37'0 0.0
2017-Jul-18 03:30N 47°12' W 001°37'0 0.0
2017-Jul-18 03:00N 47°12' W 001°37'0 0.0
2017-Jul-18 02:30N 47°12' W 001°37'0 0.0
2017-Jul-18 02:00N 47°12' W 001°37'0 0.0
2017-Jul-18 01:30N 47°12' W 001°37'0 0.0
2017-Jul-18 01:00N 47°12' W 001°37'0 0.0
2017-Jul-18 00:30N 47°12' W 001°37'0 0.0
2017-Jul-18 00:00N 47°12' W 001°37'0 0.0
2017-Jul-17 23:30N 47°12' W 001°37'0 0.0
2017-Jul-17 23:00N 47°12' W 001°37'0 0.0
2017-Jul-17 22:30N 47°12' W 001°37'0 0.0
2017-Jul-17 22:00N 47°12' W 001°37'0 0.0
2017-Jul-17 21:30N 47°12' W 001°37'0 0.0
2017-Jul-17 21:00N 47°12' W 001°37'0 0.0
2017-Jul-17 20:30N 47°12' W 001°37'0 0.0
2017-Jul-17 20:00N 47°12' W 001°37'0 0.0
2017-Jul-17 19:30N 47°12' W 001°37'0 0.0
2017-Jul-17 19:00N 47°12' W 001°37'0 0.0
2017-Jul-17 18:30N 47°12' W 001°37'0 0.0
2017-Jul-17 18:00N 47°12' W 001°37'0 0.0
2017-Jul-17 17:30N 47°12' W 001°37'0 0.0
2017-Jul-17 17:00N 47°12' W 001°37'0 0.0
2017-Jul-17 15:13N 47°12' W 001°37'0 0.0
2017-Jul-17 15:00N 47°12' W 001°37'0 0.0
2017-Jul-17 14:30N 47°12' W 001°37'0 0.0
2017-Jul-17 14:00N 47°12' W 001°37'0 0.0
2017-Jul-17 13:30N 47°12' W 001°37'0 0.0
2017-Jul-17 13:00N 47°12' W 001°37'0 0.0
2017-Jul-17 12:30N 47°12' W 001°37'0 0.0
2017-Jul-17 12:00N 47°12' W 001°37'0 0.0
2017-Jul-17 11:30N 47°12' W 001°37'0 0.0
2017-Jul-17 11:00N 47°12' W 001°37'0 0.0
2017-Jul-17 10:30N 47°12' W 001°37'0 0.0
2017-Jul-17 10:00N 47°12' W 001°37'0 0.0
2017-Jul-17 09:30N 47°12' W 001°37'0 0.0
2017-Jul-17 09:00N 47°12' W 001°37'0 0.0
2017-Jul-17 08:30N 47°12' W 001°37'0 0.0
2017-Jul-17 08:00N 47°12' W 001°37'0 0.0
2017-Jul-17 07:30N 47°12' W 001°37'0 0.0
2017-Jul-17 07:00N 47°12' W 001°37'0 0.0
2017-Jul-17 06:30N 47°12' W 001°37'0 0.0
2017-Jul-17 06:00N 47°12' W 001°37'0 0.0
2017-Jul-17 05:30N 47°12' W 001°37'0 0.0
2017-Jul-17 05:00N 47°12' W 001°37'0 0.0
2017-Jul-17 04:30N 47°12' W 001°37'0 0.0
2017-Jul-17 04:00N 47°12' W 001°37'0 0.0
2017-Jul-17 03:30N 47°12' W 001°37'0 0.0
2017-Jul-17 03:00N 47°12' W 001°37'0 0.0
2017-Jul-17 02:30N 47°12' W 001°37'0 0.0
2017-Jul-17 02:00N 47°12' W 001°37'0 0.0
2017-Jul-17 01:30N 47°12' W 001°37'0 0.0
2017-Jul-17 01:00N 47°12' W 001°37'0 0.0
2017-Jul-17 00:30N 47°12' W 001°37'0 0.0
2017-Jul-17 00:00N 47°12' W 001°37'0 0.0
2017-Jul-16 23:30N 47°12' W 001°37'0 0.0
2017-Jul-16 23:00N 47°12' W 001°37'0 0.0
2017-Jul-16 22:30N 47°12' W 001°37'0 0.0
2017-Jul-16 22:00N 47°12' W 001°37'0 0.0
2017-Jul-16 21:30N 47°12' W 001°37'0 0.0
2017-Jul-16 21:00N 47°12' W 001°37'0 0.0
2017-Jul-16 20:30N 47°12' W 001°37'0 0.0
2017-Jul-16 20:00N 47°12' W 001°37'0 0.0
2017-Jul-16 19:30N 47°12' W 001°37'0 0.0
2017-Jul-16 19:00N 47°12' W 001°37'0 0.0
2017-Jul-16 18:30N 47°12' W 001°37'0 0.0
2017-Jul-16 18:00N 47°12' W 001°37'0 0.0
2017-Jul-16 17:30N 47°12' W 001°37'0 0.0
2017-Jul-16 17:00N 47°12' W 001°37'0 0.0
2017-Jul-16 16:30N 47°12' W 001°37'0 0.0
2017-Jul-16 16:00N 47°12' W 001°37'0 0.0
2017-Jul-16 15:30N 47°12' W 001°37'0 0.0
2017-Jul-16 15:00N 47°12' W 001°37'0 0.0
2017-Jul-16 14:30N 47°12' W 001°37'0 0.0
2017-Jul-16 14:00N 47°12' W 001°37'0 0.0
2017-Jul-16 13:30N 47°12' W 001°37'0 0.0
2017-Jul-16 13:00N 47°12' W 001°37'0 0.0
2017-Jul-16 12:30N 47°12' W 001°37'0 0.0
2017-Jul-16 12:00N 47°12' W 001°37'0 0.0
2017-Jul-16 11:30N 47°12' W 001°37'0 0.0
2017-Jul-16 11:00N 47°12' W 001°37'0 0.0
2017-Jul-16 10:30N 47°12' W 001°37'0 0.0
2017-Jul-16 10:00N 47°12' W 001°37'0 0.0
2017-Jul-16 09:30N 47°12' W 001°37'0 0.0
2017-Jul-16 09:00N 47°12' W 001°37'0 0.0
2017-Jul-16 08:30N 47°12' W 001°37'0 0.0
2017-Jul-16 08:00N 47°12' W 001°37'0 0.0
2017-Jul-16 07:30N 47°12' W 001°37'0 0.0
2017-Jul-16 07:00N 47°12' W 001°37'0 0.0
2017-Jul-16 06:30N 47°12' W 001°37'0 0.0
2017-Jul-16 06:00N 47°12' W 001°37'0 0.0
2017-Jul-16 05:30N 47°12' W 001°37'0 0.0
2017-Jul-16 05:00N 47°12' W 001°37'0 0.0
2017-Jul-16 04:30N 47°12' W 001°37'0 0.0
2017-Jul-16 04:00N 47°12' W 001°37'0 0.0
2017-Jul-16 03:30N 47°12' W 001°37'0 0.0
2017-Jul-16 03:00N 47°12' W 001°37'0 0.0
2017-Jul-16 02:30N 47°12' W 001°37'0 0.0
2017-Jul-16 02:00N 47°12' W 001°37'0 0.0
2017-Jul-16 01:30N 47°12' W 001°37'0 0.0
2017-Jul-16 01:00N 47°12' W 001°37'0 0.0
2017-Jul-16 00:30N 47°12' W 001°37'0 0.0
2017-Jul-16 00:00N 47°12' W 001°37'0 0.0
2017-Jul-15 23:30N 47°12' W 001°37'0 0.0
2017-Jul-15 23:00N 47°12' W 001°37'0 0.0
2017-Jul-15 22:30N 47°12' W 001°37'0 0.0
2017-Jul-15 22:00N 47°12' W 001°37'0 0.0
2017-Jul-15 21:30N 47°12' W 001°37'0 0.0
2017-Jul-15 21:00N 47°12' W 001°37'0 0.0
2017-Jul-15 20:30N 47°12' W 001°37'0 0.6
2017-Jul-15 20:00N 47°12' W 001°37'0 0.9
2017-Jul-15 19:30N 47°12' W 001°38'0 0.0
2017-Jul-15 19:00N 47°12' W 001°38'0 0.0
2017-Jul-15 18:30N 47°12' W 001°38'0 1.0
2017-Jul-15 18:00N 47°11' W 001°39'5 9.4
2017-Jul-15 17:30N 47°12' W 001°45'510.7
2017-Jul-15 17:00N 47°16' W 001°51'510.8
2017-Jul-15 16:30N 47°17' W 001°59'5 9.4
2017-Jul-15 16:00N 47°18' W 002°06'5 9.9
2017-Jul-15 15:30N 47°16' W 002°12'510.2
2017-Jul-15 15:00N 47°12' W 002°17'7 7.5
2017-Jul-15 14:01N 47°05' W 002°23'0 0.5
2017-Jul-15 13:30N 47°06' W 002°22'0 0.3
2017-Jul-15 12:57N 47°06' W 002°22'1 1.2
2017-Jul-15 12:30N 47°06' W 002°22'  
Track history (hours):
 
Tides and Currents Weather Stations Pressure Air Temp Water Temp Dewpoint Dewpoint Depression Visibility Wind Speed Wind Dir Waves Ship Positions

St Pierre

Last reported at 2017-Jul-25 12:30 UTC. Time now 2017-Jul-25 12:42 UTC.
Position N 47°05' W 002°21'.

Length 84 m; draft 5.5 m.

Type: Cargo ship. MMSI: 228024800.

Date/timePositionNaut miles runAvg speedWind from/ knotsBaromVisibWave heightAir tempDewpointWater temp
2017-Jul-25 12:30N 47°05' W 002°21'0 0.4
2017-Jul-25 12:00N 47°05' W 002°22'0 0.7
2017-Jul-25 11:30N 47°05' W 002°21'0 0.6
2017-Jul-25 11:00N 47°05' W 002°22'3 5.3
2017-Jul-25 10:30N 47°08' W 002°20'510.2
2017-Jul-25 10:00N 47°12' W 002°17'612.4
2017-Jul-25 09:30N 47°17' W 002°11'3 6.1
2017-Jul-25 09:00N 47°18' W 002°07'0 0.0
2017-Jul-25 08:30N 47°18' W 002°07'0 0.0
2017-Jul-25 08:00N 47°18' W 002°07'0 0.0
2017-Jul-25 07:30N 47°18' W 002°07'0 0.0
2017-Jul-25 07:00N 47°18' W 002°07'0 0.0
2017-Jul-25 06:30N 47°18' W 002°07'0 0.0
2017-Jul-25 06:00N 47°18' W 002°07'0 0.0
2017-Jul-25 05:30N 47°18' W 002°07'0 0.0
2017-Jul-25 05:00N 47°18' W 002°07'0 0.0
2017-Jul-25 04:30N 47°18' W 002°07'0 0.0
2017-Jul-25 04:00N 47°18' W 002°07'0 0.0
2017-Jul-25 03:30N 47°18' W 002°07'0 0.0
2017-Jul-25 03:00N 47°18' W 002°07'0 0.0
2017-Jul-25 02:30N 47°18' W 002°07'0 0.0
2017-Jul-25 02:00N 47°18' W 002°07'0 0.0
2017-Jul-25 01:30N 47°18' W 002°07'0 0.0
2017-Jul-25 01:00N 47°18' W 002°07'0 0.0
2017-Jul-25 00:30N 47°18' W 002°07'0 0.0
2017-Jul-25 00:00N 47°18' W 002°07'0 0.0
2017-Jul-24 23:30N 47°18' W 002°07'0 0.0
2017-Jul-24 23:00N 47°18' W 002°07'0 0.0
2017-Jul-24 22:30N 47°18' W 002°07'0 0.0
2017-Jul-24 22:00N 47°18' W 002°07'0 0.0
2017-Jul-24 21:30N 47°18' W 002°07'0 0.0
2017-Jul-24 21:00N 47°18' W 002°07'2 4.8
2017-Jul-24 20:30N 47°18' W 002°04'713.9
2017-Jul-24 20:00N 47°17' W 001°54'713.0
2017-Jul-24 19:30N 47°12' W 001°46'510.2
2017-Jul-24 19:00N 47°11' W 001°39'1 2.9
2017-Jul-24 18:30N 47°12' W 001°37'0 0.0
2017-Jul-24 18:00N 47°12' W 001°37'0 0.0
2017-Jul-24 17:30N 47°12' W 001°37'0 0.0
2017-Jul-24 17:00N 47°12' W 001°37'0 0.0
2017-Jul-24 16:30N 47°12' W 001°37'0 0.0
2017-Jul-24 16:00N 47°12' W 001°37'0 0.0
2017-Jul-24 13:00N 47°12' W 001°37'0 0.0
2017-Jul-24 12:30N 47°12' W 001°37'0 0.0
2017-Jul-24 12:00N 47°12' W 001°37'0 0.0
2017-Jul-24 11:30N 47°12' W 001°37'0 0.0
2017-Jul-24 11:00N 47°12' W 001°37'0 0.0
2017-Jul-24 10:30N 47°12' W 001°37'0 0.0
2017-Jul-24 10:00N 47°12' W 001°37'0 0.0
2017-Jul-24 09:30N 47°12' W 001°37'0 0.0
2017-Jul-24 09:00N 47°12' W 001°37'0 0.0
2017-Jul-24 08:30N 47°12' W 001°37'0 0.0
2017-Jul-24 08:00N 47°12' W 001°37'0 0.0
2017-Jul-24 07:30N 47°12' W 001°37'0 0.0
2017-Jul-24 07:00N 47°12' W 001°37'0 0.0
2017-Jul-24 06:30N 47°12' W 001°37'0 0.0
2017-Jul-24 06:00N 47°12' W 001°37'0 0.0
2017-Jul-24 05:30N 47°12' W 001°37'0 0.0
2017-Jul-24 05:00N 47°12' W 001°37'0 0.0
2017-Jul-24 04:30N 47°12' W 001°37'0 0.0
2017-Jul-24 04:00N 47°12' W 001°37'0 0.0
2017-Jul-24 03:30N 47°12' W 001°37'0 0.0
2017-Jul-24 03:00N 47°12' W 001°37'0 0.0
2017-Jul-24 02:30N 47°12' W 001°37'0 0.0
2017-Jul-24 02:00N 47°12' W 001°37'0 0.0
2017-Jul-24 01:30N 47°12' W 001°37'0 0.0
2017-Jul-24 01:00N 47°12' W 001°37'0 0.0
2017-Jul-24 00:30N 47°12' W 001°37'0 0.0
2017-Jul-24 00:00N 47°12' W 001°37'0 0.0
2017-Jul-23 23:30N 47°12' W 001°37'0 0.0
2017-Jul-23 23:00N 47°12' W 001°37'0 0.0
2017-Jul-23 22:30N 47°12' W 001°37'0 0.1
2017-Jul-23 22:00N 47°12' W 001°37'0 0.1
2017-Jul-23 21:30N 47°12' W 001°37'0 0.0
2017-Jul-23 21:00N 47°12' W 001°37'0 0.0
2017-Jul-23 20:30N 47°12' W 001°37'0 0.0
2017-Jul-23 20:00N 47°12' W 001°37'0 0.0
2017-Jul-23 19:30N 47°12' W 001°37'0 0.0
2017-Jul-23 19:00N 47°12' W 001°37'0 0.0
2017-Jul-23 18:30N 47°12' W 001°37'1 1.5
2017-Jul-23 18:01N 47°12' W 001°38'0 0.1
2017-Jul-23 17:30N 47°12' W 001°38'0 0.0
2017-Jul-23 17:00N 47°12' W 001°38'0 0.0
2017-Jul-23 16:30N 47°12' W 001°38'0 0.6
2017-Jul-23 16:00N 47°12' W 001°38'510.0
2017-Jul-23 15:30N 47°12' W 001°46'510.5
2017-Jul-23 15:00N 47°16' W 001°51'510.6
2017-Jul-23 14:30N 47°17' W 001°59'611.7
2017-Jul-23 14:00N 47°18' W 002°07'612.4
2017-Jul-23 13:31N 47°14' W 002°15'712.9
2017-Jul-23 13:00N 47°09' W 002°19'4 7.5
2017-Jul-23 12:30N 47°06' W 002°22'0 0.3
2017-Jul-23 12:00N 47°05' W 002°23'0 0.1
2017-Jul-23 11:30N 47°05' W 002°23'0 0.9
2017-Jul-23 11:00N 47°06' W 002°22'0 1.0
2017-Jul-23 10:30N 47°05' W 002°23'1 1.0
2017-Jul-23 10:00N 47°06' W 002°22'0 0.7
2017-Jul-23 09:30N 47°06' W 002°22'4 7.6
2017-Jul-23 09:00N 47°09' W 002°20'713.5
2017-Jul-23 08:30N 47°15' W 002°14'713.3
2017-Jul-23 08:00N 47°18' W 002°06'713.6
2017-Jul-23 07:30N 47°17' W 001°56'713.4
2017-Jul-23 07:00N 47°13' W 001°48'611.5
2017-Jul-23 06:30N 47°12' W 001°40'2 3.0
2017-Jul-23 06:00N 47°12' W 001°38'0 0.0
2017-Jul-23 05:30N 47°12' W 001°38'0 0.0
2017-Jul-23 05:00N 47°12' W 001°38'0 0.0
2017-Jul-23 04:30N 47°12' W 001°38'1 1.1
2017-Jul-23 04:00N 47°11' W 001°39'5 9.6
2017-Jul-23 03:30N 47°12' W 001°46'510.9
2017-Jul-23 03:00N 47°16' W 001°52'611.5
2017-Jul-23 02:30N 47°17' W 001°60'611.4
2017-Jul-23 02:00N 47°18' W 002°08'611.9
2017-Jul-23 01:30N 47°14' W 002°15'611.4
2017-Jul-23 01:00N 47°09' W 002°19'4 7.6
2017-Jul-23 00:30N 47°06' W 002°21'0 0.5
2017-Jul-23 00:00N 47°06' W 002°21'0 0.4
2017-Jul-22 23:30N 47°06' W 002°21'1 1.5
2017-Jul-22 23:00N 47°06' W 002°22'1 1.1
2017-Jul-22 22:31N 47°05' W 002°23'0 1.0
2017-Jul-22 22:00N 47°06' W 002°22'0 0.8
2017-Jul-22 21:30N 47°06' W 002°22'0 0.5
2017-Jul-22 21:00N 47°06' W 002°22'0 0.3
2017-Jul-22 20:30N 47°06' W 002°22'1 1.3
2017-Jul-22 20:00N 47°05' W 002°23'611.0
2017-Jul-22 19:30N 47°10' W 002°18'714.0
2017-Jul-22 19:01N 47°16' W 002°12'611.9
2017-Jul-22 18:30N 47°18' W 002°04'713.4
2017-Jul-22 18:00N 47°17' W 001°55'612.7
2017-Jul-22 17:30N 47°13' W 001°47'610.9
2017-Jul-22 17:00N 47°12' W 001°39'1 1.9
2017-Jul-22 16:30N 47°12' W 001°38'0 0.0
2017-Jul-22 16:00N 47°12' W 001°38'0 0.0
2017-Jul-22 15:30N 47°12' W 001°38'0 0.0
2017-Jul-22 15:00N 47°12' W 001°38'6 6.3
2017-Jul-22 14:00N 47°13' W 001°47'5 9.3
2017-Jul-22 13:30N 47°16' W 001°52'510.3
2017-Jul-22 13:00N 47°17' W 001°59'611.0
2017-Jul-22 12:30N 47°18' W 002°07'612.3
2017-Jul-22 12:00N 47°14' W 002°15'611.7
2017-Jul-22 11:30N 47°09' W 002°19'5 9.2
2017-Jul-22 11:00N 47°05' W 002°21'0 0.7
2017-Jul-22 10:30N 47°05' W 002°21'0 0.5
2017-Jul-22 10:00N 47°05' W 002°22'0 0.8
2017-Jul-22 09:31N 47°05' W 002°21'0 0.7
2017-Jul-22 09:01N 47°05' W 002°22'0 0.3
2017-Jul-22 08:31N 47°05' W 002°21'0 0.1
2017-Jul-22 08:01N 47°05' W 002°21'0 0.4
2017-Jul-22 07:31N 47°05' W 002°22'3 6.2
2017-Jul-22 07:01N 47°08' W 002°20'612.9
2017-Jul-22 06:30N 47°14' W 002°16'713.5
2017-Jul-22 06:00N 47°18' W 002°08'1 1.8
2017-Jul-22 05:30N 47°18' W 002°07'0 0.0
2017-Jul-22 05:01N 47°18' W 002°07'0 0.0
2017-Jul-22 04:30N 47°18' W 002°07'0 0.0
2017-Jul-22 04:00N 47°18' W 002°07'0 0.0
2017-Jul-22 03:30N 47°18' W 002°07'4 7.2
2017-Jul-22 03:01N 47°16' W 002°11'612.2
2017-Jul-22 02:30N 47°12' W 002°17'611.8
2017-Jul-22 02:01N 47°07' W 002°22'1 2.4
2017-Jul-22 01:30N 47°05' W 002°22'0 0.3
2017-Jul-22 01:00N 47°05' W 002°22'0 0.9
2017-Jul-22 00:30N 47°05' W 002°22'0 0.9
2017-Jul-22 00:00N 47°06' W 002°22'0 0.8
2017-Jul-21 23:30N 47°06' W 002°22'0 0.5
2017-Jul-21 23:00N 47°06' W 002°22'0 0.3
2017-Jul-21 22:30N 47°06' W 002°22'0 0.2
2017-Jul-21 22:00N 47°06' W 002°22'1 1.1
2017-Jul-21 21:29N 47°06' W 002°22'510.1
2017-Jul-21 21:00N 47°07' W 002°29'611.5
2017-Jul-21 20:30N 47°10' W 002°36'1411.9
2017-Jul-21 19:21N 47°17' W 002°54'711.9
2017-Jul-21 18:47N 47°21' W 003°02'311.9
2017-Jul-21 18:30N 47°23' W 003°05'510.0
2017-Jul-21 18:00N 47°27' W 003°10'4 9.0
2017-Jul-21 17:30N 47°31' W 003°13'5 9.6
2017-Jul-21 17:00N 47°35' W 003°16'510.5
2017-Jul-21 16:30N 47°39' W 003°21'5 9.3
2017-Jul-21 16:00N 47°44' W 003°22'2 3.8
2017-Jul-21 15:30N 47°45' W 003°19'0 0.0
2017-Jul-21 15:00N 47°45' W 003°19'0 0.0
2017-Jul-21 14:30N 47°45' W 003°19'0 0.0
2017-Jul-21 14:00N 47°45' W 003°19'0 0.0
2017-Jul-21 13:30N 47°45' W 003°19'2 3.7
2017-Jul-21 13:00N 47°44' W 003°21'4 8.3
2017-Jul-21 12:30N 47°40' W 003°25'0 0.2
2017-Jul-21 12:00N 47°40' W 003°25'0 0.0
2017-Jul-21 11:30N 47°40' W 003°25'0 0.0
2017-Jul-21 11:00N 47°40' W 003°25'0 0.0
2017-Jul-21 10:30N 47°40' W 003°25'0 0.0
2017-Jul-21 10:00N 47°40' W 003°25'0 0.0
2017-Jul-21 09:30N 47°40' W 003°25'0 0.0
2017-Jul-21 09:00N 47°40' W 003°25'0 0.0
2017-Jul-21 08:30N 47°40' W 003°25'0 0.0
2017-Jul-21 08:00N 47°40' W 003°25'0 0.0
2017-Jul-21 07:30N 47°40' W 003°25'0 0.0
2017-Jul-21 07:00N 47°40' W 003°25'0 0.0
2017-Jul-21 06:30N 47°40' W 003°25'0 0.0
2017-Jul-21 06:00N 47°40' W 003°25'0 0.0
2017-Jul-21 05:30N 47°40' W 003°25'0 0.0
2017-Jul-21 05:00N 47°40' W 003°25'0 0.4
2017-Jul-21 04:30N 47°40' W 003°25'510.2
2017-Jul-21 04:00N 47°37' W 003°18'510.1
2017-Jul-21 03:30N 47°33' W 003°15'4 7.7
2017-Jul-21 03:00N 47°29' W 003°12'3 6.6
2017-Jul-21 02:30N 47°27' W 003°10'3 6.0
2017-Jul-21 02:01N 47°24' W 003°07'3 6.3
2017-Jul-21 01:30N 47°22' W 003°04'3 6.6
2017-Jul-21 01:00N 47°20' W 002°60'4 7.5
2017-Jul-21 00:30N 47°18' W 002°55'4 8.0
2017-Jul-21 00:00N 47°15' W 002°51'4 8.3
2017-Jul-20 23:30N 47°13' W 002°46'4 7.7
2017-Jul-20 23:00N 47°11' W 002°41'4 8.1
2017-Jul-20 22:30N 47°09' W 002°35'5 8.9
2017-Jul-20 21:58N 47°07' W 002°29'4 9.5
2017-Jul-20 21:30N 47°05' W 002°23'1 2.9
2017-Jul-20 21:00N 47°05' W 002°21'0 0.7
2017-Jul-20 20:30N 47°05' W 002°22'0 0.9
2017-Jul-20 20:00N 47°05' W 002°21'0 0.8
2017-Jul-20 19:28N 47°05' W 002°22'0 0.6
2017-Jul-20 18:58N 47°05' W 002°21'3 4.5
2017-Jul-20 18:22N 47°07' W 002°20'512.7
2017-Jul-20 18:00N 47°12' W 002°18'714.2
2017-Jul-20 17:30N 47°17' W 002°11'611.2
2017-Jul-20 17:00N 47°18' W 002°03'713.4
2017-Jul-20 16:30N 47°16' W 001°53'612.7
2017-Jul-20 16:00N 47°12' W 001°46'510.4
2017-Jul-20 15:31N 47°12' W 001°38'0 0.4
2017-Jul-20 15:00N 47°12' W 001°38'0 0.0
2017-Jul-20 14:01N 47°12' W 001°38'0 0.0
2017-Jul-20 13:30N 47°12' W 001°38'1 2.4
2017-Jul-20 13:01N 47°12' W 001°40'510.4
2017-Jul-20 12:30N 47°13' W 001°47'611.3
2017-Jul-20 12:01N 47°16' W 001°53'611.6
2017-Jul-20 11:30N 47°18' W 002°02'611.4
2017-Jul-20 11:00N 47°17' W 002°10'612.9
2017-Jul-20 10:30N 47°13' W 002°17'612.0
2017-Jul-20 10:01N 47°07' W 002°21'2 4.1
2017-Jul-20 09:30N 47°06' W 002°22'0 0.9
2017-Jul-20 09:01N 47°06' W 002°22'0 0.5
2017-Jul-20 08:30N 47°06' W 002°22'0 0.8
2017-Jul-20 08:00N 47°05' W 002°23'0 0.7
2017-Jul-20 07:30N 47°06' W 002°22'0 0.1
2017-Jul-20 07:01N 47°06' W 002°22'0 0.3
2017-Jul-20 06:30N 47°06' W 002°22'1 1.1
2017-Jul-20 06:00N 47°06' W 002°22'0 0.4
2017-Jul-20 05:30N 47°06' W 002°22'510.9
2017-Jul-20 05:00N 47°11' W 002°18'714.3
2017-Jul-20 04:30N 47°16' W 002°11'611.7
2017-Jul-20 04:01N 47°18' W 002°03'713.4
2017-Jul-20 03:30N 47°16' W 001°53'612.5
2017-Jul-20 03:00N 47°12' W 001°46'5 9.7
2017-Jul-20 02:30N 47°12' W 001°39'1 1.5
2017-Jul-20 02:00N 47°12' W 001°38'0 0.0
2017-Jul-20 01:30N 47°12' W 001°38'0 0.0
2017-Jul-20 01:00N 47°12' W 001°38'0 0.0
2017-Jul-20 00:30N 47°12' W 001°38'0 0.0
2017-Jul-20 00:00N 47°12' W 001°38'0 0.0
2017-Jul-19 23:30N 47°12' W 001°38'0 0.0
2017-Jul-19 23:00N 47°12' W 001°38'0 0.0
2017-Jul-19 22:30N 47°12' W 001°38'0 0.0
2017-Jul-19 22:00N 47°12' W 001°38'0 0.0
2017-Jul-19 21:30N 47°12' W 001°38'0 0.0
2017-Jul-19 21:00N 47°12' W 001°38'0 0.0
2017-Jul-19 20:30N 47°12' W 001°38'0 0.0
2017-Jul-19 20:00N 47°12' W 001°38'0 0.0
2017-Jul-19 19:30N 47°12' W 001°38'0 0.0
2017-Jul-19 19:00N 47°12' W 001°38'0 0.0
2017-Jul-19 18:30N 47°12' W 001°38'0 0.0
2017-Jul-19 18:00N 47°12' W 001°38'0 0.0
2017-Jul-19 17:30N 47°12' W 001°38'0 0.0
2017-Jul-19 17:00N 47°12' W 001°38'0 0.0
2017-Jul-19 16:30N 47°12' W 001°38'0 0.0
2017-Jul-19 16:00N 47°12' W 001°38'0 0.0
2017-Jul-19 15:30N 47°12' W 001°38'0 0.0
2017-Jul-19 15:00N 47°12' W 001°38'0 0.0
2017-Jul-19 14:30N 47°12' W 001°38'0 0.0
2017-Jul-19 14:00N 47°12' W 001°38'0 0.0
2017-Jul-19 13:30N 47°12' W 001°38'0 0.0
2017-Jul-19 13:00N 47°12' W 001°38'0 0.0
2017-Jul-19 12:30N 47°12' W 001°38'0 0.0
2017-Jul-19 12:00N 47°12' W 001°38'0 0.0
2017-Jul-19 11:30N 47°12' W 001°38'0 0.0
2017-Jul-19 11:00N 47°12' W 001°38'0 0.0
2017-Jul-19 10:30N 47°12' W 001°38'0 0.0
2017-Jul-19 10:00N 47°12' W 001°38'0 0.0
2017-Jul-19 09:30N 47°12' W 001°38'0 0.0
2017-Jul-19 09:00N 47°12' W 001°38'0 0.0
2017-Jul-19 08:30N 47°12' W 001°38'0 0.0
2017-Jul-19 08:00N 47°12' W 001°38'0 0.0
2017-Jul-19 07:30N 47°12' W 001°38'0 0.0
2017-Jul-19 07:00N 47°12' W 001°38'0 0.0
2017-Jul-19 06:30N 47°12' W 001°38'0 0.0
2017-Jul-19 06:00N 47°12' W 001°38'0 0.0
2017-Jul-19 05:30N 47°12' W 001°38'0 0.0
2017-Jul-19 05:00N 47°12' W 001°38'0 0.0
2017-Jul-19 04:30N 47°12' W 001°38'0 0.0
2017-Jul-19 04:00N 47°12' W 001°38'0 0.0
2017-Jul-19 03:30N 47°12' W 001°38'0 0.0
2017-Jul-19 03:00N 47°12' W 001°38'0 0.0
2017-Jul-19 02:30N 47°12' W 001°38'0 0.0
2017-Jul-19 02:00N 47°12' W 001°38'0 0.0
2017-Jul-19 01:31N 47°12' W 001°38'0 0.0
2017-Jul-19 01:00N 47°12' W 001°38'0 0.0
2017-Jul-19 00:30N 47°12' W 001°38'2 3.5
2017-Jul-19 00:00N 47°12' W 001°41'510.8
2017-Jul-18 23:30N 47°13' W 001°48'611.3
2017-Jul-18 23:00N 47°17' W 001°54'612.6
2017-Jul-18 22:30N 47°18' W 002°03'510.9
2017-Jul-18 22:00N 47°16' W 002°11'612.8
2017-Jul-18 21:30N 47°12' W 002°17'612.4
2017-Jul-18 21:00N 47°06' W 002°21'1 2.3
2017-Jul-18 20:30N 47°05' W 002°21'0 0.9
2017-Jul-18 20:00N 47°05' W 002°22'1 1.0
2017-Jul-18 19:30N 47°05' W 002°21'0 0.7
2017-Jul-18 19:00N 47°05' W 002°22'0 0.2
2017-Jul-18 18:30N 47°05' W 002°21'0 0.5
2017-Jul-18 18:00N 47°05' W 002°21'0 1.0
2017-Jul-18 17:30N 47°05' W 002°22'0 0.7
2017-Jul-18 17:00N 47°05' W 002°21'0 1.0
2017-Jul-18 16:30N 47°05' W 002°22'1010.5
2017-Jul-18 15:34N 47°14' W 002°16'314.3
2017-Jul-18 15:22N 47°16' W 002°12'412.2
2017-Jul-18 15:01N 47°18' W 002°07'1312.6
2017-Jul-18 14:00N 47°13' W 001°50'611.7
2017-Jul-18 13:30N 47°12' W 001°41'3 6.1
2017-Jul-18 13:00N 47°12' W 001°37'0 0.0
2017-Jul-18 12:30N 47°12' W 001°37'0 0.0
2017-Jul-18 12:00N 47°12' W 001°37'0 0.0
2017-Jul-18 11:30N 47°12' W 001°37'0 0.0
2017-Jul-18 11:00N 47°12' W 001°37'0 0.0
2017-Jul-18 10:30N 47°12' W 001°37'0 0.0
2017-Jul-18 10:00N 47°12' W 001°37'0 0.0
2017-Jul-18 09:30N 47°12' W 001°37'0 0.0
2017-Jul-18 09:00N 47°12' W 001°37'0 0.0
2017-Jul-18 08:30N 47°12' W 001°37'0 0.0
2017-Jul-18 08:00N 47°12' W 001°37'0 0.0
2017-Jul-18 07:30N 47°12' W 001°37'0 0.0
2017-Jul-18 07:00N 47°12' W 001°37'0 0.0
2017-Jul-18 06:30N 47°12' W 001°37'0 0.0
2017-Jul-18 06:00N 47°12' W 001°37'0 0.0
2017-Jul-18 05:30N 47°12' W 001°37'0 0.0
2017-Jul-18 05:00N 47°12' W 001°37'0 0.0
2017-Jul-18 04:30N 47°12' W 001°37'0 0.0
2017-Jul-18 04:00N 47°12' W 001°37'0 0.0
2017-Jul-18 03:30N 47°12' W 001°37'0 0.0
2017-Jul-18 03:00N 47°12' W 001°37'0 0.0
2017-Jul-18 02:30N 47°12' W 001°37'0 0.0
2017-Jul-18 02:00N 47°12' W 001°37'0 0.0
2017-Jul-18 01:30N 47°12' W 001°37'0 0.0
2017-Jul-18 01:00N 47°12' W 001°37'0 0.0
2017-Jul-18 00:30N 47°12' W 001°37'0 0.0
2017-Jul-18 00:00N 47°12' W 001°37'0 0.0
2017-Jul-17 23:30N 47°12' W 001°37'0 0.0
2017-Jul-17 23:00N 47°12' W 001°37'0 0.0
2017-Jul-17 22:30N 47°12' W 001°37'0 0.0
2017-Jul-17 22:00N 47°12' W 001°37'0 0.0
2017-Jul-17 21:30N 47°12' W 001°37'0 0.0
2017-Jul-17 21:00N 47°12' W 001°37'0 0.0
2017-Jul-17 20:30N 47°12' W 001°37'0 0.0
2017-Jul-17 20:00N 47°12' W 001°37'0 0.0
2017-Jul-17 19:30N 47°12' W 001°37'0 0.0
2017-Jul-17 19:00N 47°12' W 001°37'0 0.0
2017-Jul-17 18:30N 47°12' W 001°37'0 0.0
2017-Jul-17 18:00N 47°12' W 001°37'0 0.0
2017-Jul-17 17:30N 47°12' W 001°37'0 0.0
2017-Jul-17 17:00N 47°12' W 001°37'0 0.0
2017-Jul-17 15:13N 47°12' W 001°37'0 0.0
2017-Jul-17 15:00N 47°12' W 001°37'0 0.0
2017-Jul-17 14:30N 47°12' W 001°37'0 0.0
2017-Jul-17 14:00N 47°12' W 001°37'0 0.0
2017-Jul-17 13:30N 47°12' W 001°37'0 0.0
2017-Jul-17 13:00N 47°12' W 001°37'0 0.0
2017-Jul-17 12:30N 47°12' W 001°37'0 0.0
2017-Jul-17 12:00N 47°12' W 001°37'0 0.0
2017-Jul-17 11:30N 47°12' W 001°37'0 0.0
2017-Jul-17 11:00N 47°12' W 001°37'0 0.0
2017-Jul-17 10:30N 47°12' W 001°37'0 0.0
2017-Jul-17 10:00N 47°12' W 001°37'0 0.0
2017-Jul-17 09:30N 47°12' W 001°37'0 0.0
2017-Jul-17 09:00N 47°12' W 001°37'0 0.0
2017-Jul-17 08:30N 47°12' W 001°37'0 0.0
2017-Jul-17 08:00N 47°12' W 001°37'0 0.0
2017-Jul-17 07:30N 47°12' W 001°37'0 0.0
2017-Jul-17 07:00N 47°12' W 001°37'0 0.0
2017-Jul-17 06:30N 47°12' W 001°37'0 0.0
2017-Jul-17 06:00N 47°12' W 001°37'0 0.0
2017-Jul-17 05:30N 47°12' W 001°37'0 0.0
2017-Jul-17 05:00N 47°12' W 001°37'0 0.0
2017-Jul-17 04:30N 47°12' W 001°37'0 0.0
2017-Jul-17 04:00N 47°12' W 001°37'0 0.0
2017-Jul-17 03:30N 47°12' W 001°37'0 0.0
2017-Jul-17 03:00N 47°12' W 001°37'0 0.0
2017-Jul-17 02:30N 47°12' W 001°37'0 0.0
2017-Jul-17 02:00N 47°12' W 001°37'0 0.0
2017-Jul-17 01:30N 47°12' W 001°37'0 0.0
2017-Jul-17 01:00N 47°12' W 001°37'0 0.0
2017-Jul-17 00:30N 47°12' W 001°37'0 0.0
2017-Jul-17 00:00N 47°12' W 001°37'0 0.0
2017-Jul-16 23:30N 47°12' W 001°37'0 0.0
2017-Jul-16 23:00N 47°12' W 001°37'0 0.0
2017-Jul-16 22:30N 47°12' W 001°37'0 0.0
2017-Jul-16 22:00N 47°12' W 001°37'0 0.0
2017-Jul-16 21:30N 47°12' W 001°37'0 0.0
2017-Jul-16 21:00N 47°12' W 001°37'0 0.0
2017-Jul-16 20:30N 47°12' W 001°37'0 0.0
2017-Jul-16 20:00N 47°12' W 001°37'0 0.0
2017-Jul-16 19:30N 47°12' W 001°37'0 0.0
2017-Jul-16 19:00N 47°12' W 001°37'0 0.0
2017-Jul-16 18:30N 47°12' W 001°37'0 0.0
2017-Jul-16 18:00N 47°12' W 001°37'0 0.0
2017-Jul-16 17:30N 47°12' W 001°37'0 0.0
2017-Jul-16 17:00N 47°12' W 001°37'0 0.0
2017-Jul-16 16:30N 47°12' W 001°37'0 0.0
2017-Jul-16 16:00N 47°12' W 001°37'0 0.0
2017-Jul-16 15:30N 47°12' W 001°37'0 0.0
2017-Jul-16 15:00N 47°12' W 001°37'0 0.0
2017-Jul-16 14:30N 47°12' W 001°37'0 0.0
2017-Jul-16 14:00N 47°12' W 001°37'0 0.0
2017-Jul-16 13:30N 47°12' W 001°37'0 0.0
2017-Jul-16 13:00N 47°12' W 001°37'0 0.0
2017-Jul-16 12:30N 47°12' W 001°37'0 0.0
2017-Jul-16 12:00N 47°12' W 001°37'0 0.0
2017-Jul-16 11:30N 47°12' W 001°37'0 0.0
2017-Jul-16 11:00N 47°12' W 001°37'0 0.0
2017-Jul-16 10:30N 47°12' W 001°37'0 0.0
2017-Jul-16 10:00N 47°12' W 001°37'0 0.0
2017-Jul-16 09:30N 47°12' W 001°37'0 0.0
2017-Jul-16 09:00N 47°12' W 001°37'0 0.0
2017-Jul-16 08:30N 47°12' W 001°37'0 0.0
2017-Jul-16 08:00N 47°12' W 001°37'0 0.0
2017-Jul-16 07:30N 47°12' W 001°37'0 0.0
2017-Jul-16 07:00N 47°12' W 001°37'0 0.0
2017-Jul-16 06:30N 47°12' W 001°37'0 0.0
2017-Jul-16 06:00N 47°12' W 001°37'0 0.0
2017-Jul-16 05:30N 47°12' W 001°37'0 0.0
2017-Jul-16 05:00N 47°12' W 001°37'0 0.0
2017-Jul-16 04:30N 47°12' W 001°37'0 0.0
2017-Jul-16 04:00N 47°12' W 001°37'0 0.0
2017-Jul-16 03:30N 47°12' W 001°37'0 0.0
2017-Jul-16 03:00N 47°12' W 001°37'0 0.0
2017-Jul-16 02:30N 47°12' W 001°37'0 0.0
2017-Jul-16 02:00N 47°12' W 001°37'0 0.0
2017-Jul-16 01:30N 47°12' W 001°37'0 0.0
2017-Jul-16 01:00N 47°12' W 001°37'0 0.0
2017-Jul-16 00:30N 47°12' W 001°37'0 0.0
2017-Jul-16 00:00N 47°12' W 001°37'0 0.0
2017-Jul-15 23:30N 47°12' W 001°37'0 0.0
2017-Jul-15 23:00N 47°12' W 001°37'0 0.0
2017-Jul-15 22:30N 47°12' W 001°37'0 0.0
2017-Jul-15 22:00N 47°12' W 001°37'0 0.0
2017-Jul-15 21:30N 47°12' W 001°37'0 0.0
2017-Jul-15 21:00N 47°12' W 001°37'0 0.0
2017-Jul-15 20:30N 47°12' W 001°37'0 0.6
2017-Jul-15 20:00N 47°12' W 001°37'0 0.9
2017-Jul-15 19:30N 47°12' W 001°38'0 0.0
2017-Jul-15 19:00N 47°12' W 001°38'0 0.0
2017-Jul-15 18:30N 47°12' W 001°38'0 1.0
2017-Jul-15 18:00N 47°11' W 001°39'5 9.4
2017-Jul-15 17:30N 47°12' W 001°45'510.7
2017-Jul-15 17:00N 47°16' W 001°51'510.8
2017-Jul-15 16:30N 47°17' W 001°59'5 9.4
2017-Jul-15 16:00N 47°18' W 002°06'5 9.9
2017-Jul-15 15:30N 47°16' W 002°12'510.2
2017-Jul-15 15:00N 47°12' W 002°17'7 7.5
2017-Jul-15 14:01N 47°05' W 002°23'0 0.5
2017-Jul-15 13:30N 47°06' W 002°22'0 0.3
2017-Jul-15 12:57N 47°06' W 002°22'1 1.2
2017-Jul-15 12:30N 47°06' W 002°22'  

Dump ship's entire track history